Time;durP1;ratioP1;P1;durP2;ratioP2;P2;SDS_P1;SDS_P2;PMS_P1;PMS_P2;Temp;Humidity;BMP_temperature;BMP_pressure;BME280_temperature;BME280_humidity;BME280_pressure;Samples;Min_cycle;Max_cycle;Signal;HPM_P1;HPM_P2
2022/08/25 00:01:55;;;;;;;2.70;2.00;;;24.20;99.90;;;;;;5092243;28;20559;-61
2022/08/25 00:04:22;;;;;;;4.38;2.00;;;24.10;99.90;;;;;;5092191;28;20032;-60
2022/08/25 00:06:48;;;;;;;3.83;1.88;;;24.10;99.90;;;;;;5092033;28;20099;-61
2022/08/25 00:09:16;;;;;;;2.55;1.80;;;24.10;99.90;;;;;;5092602;28;20065;-61
2022/08/25 00:11:43;;;;;;;3.00;1.98;;;24.10;99.90;;;;;;5092163;28;20052;-61
2022/08/25 00:14:13;;;;;;;5.95;2.08;;;24.10;99.90;;;;;;5092385;28;20087;-61
2022/08/25 00:16:40;;;;;;;3.75;1.90;;;24.10;99.90;;;;;;5092155;28;20028;-61
2022/08/25 00:19:15;;;;;;;4.03;2.13;;;24.10;99.90;;;;;;5092527;28;20394;-61
2022/08/25 00:21:42;;;;;;;3.53;2.38;;;24.10;99.90;;;;;;5091930;28;20086;-60
2022/08/25 00:24:09;;;;;;;3.30;1.90;;;24.10;99.90;;;;;;5092124;28;20099;-61
2022/08/25 00:26:39;;;;;;;4.63;1.85;;;24.10;99.90;;;;;;5092131;28;20073;-60
2022/08/25 00:29:04;;;;;;;3.67;1.98;;;24.10;99.90;;;;;;5092417;28;20377;-61
2022/08/25 00:31:30;;;;;;;2.33;1.73;;;24.20;99.90;;;;;;5091916;28;20031;-61
2022/08/25 00:33:56;;;;;;;3.30;2.00;;;24.10;99.90;;;;;;5092155;28;20036;-61
2022/08/25 00:36:22;;;;;;;3.75;1.98;;;24.20;99.90;;;;;;5090296;28;20451;-61
2022/08/25 00:38:48;;;;;;;3.55;1.85;;;24.20;99.90;;;;;;5091941;28;20028;-61
2022/08/25 00:41:19;;;;;;;5.20;2.20;;;24.10;99.90;;;;;;5092045;28;20466;-61
2022/08/25 00:43:55;;;;;;;4.20;2.10;;;24.10;99.90;;;;;;5092277;28;20036;-61
2022/08/25 00:46:25;;;;;;;2.65;2.00;;;24.10;99.90;;;;;;5092610;28;20036;-61
2022/08/25 00:48:57;;;;;;;3.67;1.55;;;24.20;99.90;;;;;;5095779;28;20038;-61
2022/08/25 00:51:48;;;;;;;4.03;2.10;;;24.20;99.90;;;;;;5095440;28;20035;-61
2022/08/25 00:54:21;;;;;;;5.10;1.92;;;24.20;99.90;;;;;;5095386;28;20047;-61
2022/08/25 00:56:50;;;;;;;2.90;1.80;;;24.20;99.90;;;;;;5096057;28;20384;-61
2022/08/25 00:59:21;;;;;;;4.97;2.10;;;24.20;99.90;;;;;;5095708;28;20036;-61
2022/08/25 01:01:50;;;;;;;2.47;2.20;;;24.20;99.90;;;;;;5095602;28;20451;-61
2022/08/25 01:04:16;;;;;;;4.70;2.00;;;24.20;99.90;;;;;;5095128;28;20502;-61
2022/08/25 01:06:43;;;;;;;5.22;2.13;;;24.20;99.90;;;;;;5095608;28;20032;-61
2022/08/25 01:09:12;;;;;;;4.60;2.08;;;24.20;99.90;;;;;;5094617;28;20694;-61
2022/08/25 01:11:39;;;;;;;3.47;2.20;;;24.20;99.90;;;;;;5095243;28;20035;-61
2022/08/25 01:14:05;;;;;;;3.25;2.03;;;24.20;99.90;;;;;;5095538;28;20034;-61
2022/08/25 01:16:37;;;;;;;3.10;2.25;;;24.10;99.90;;;;;;5095405;28;20440;-61
2022/08/25 01:19:04;;;;;;;3.25;2.10;;;24.10;99.90;;;;;;5094700;28;20043;-61
2022/08/25 01:21:37;;;;;;;3.00;1.80;;;24.10;99.90;;;;;;5095487;28;20504;-60
2022/08/25 01:24:03;;;;;;;4.13;2.13;;;24.10;99.90;;;;;;5095127;28;20024;-61
2022/08/25 01:26:32;;;;;;;4.28;2.10;;;24.10;99.90;;;;;;5095180;28;20062;-61
2022/08/25 01:31:45;;;;;;;3.53;2.20;;;24.10;99.90;;;;;;5095173;28;20072;-61
2022/08/25 01:34:14;;;;;;;10.30;3.00;;;24.10;99.90;;;;;;5094843;28;20492;-61
2022/08/25 01:36:42;;;;;;;10.85;2.80;;;24.10;99.90;;;;;;5094867;28;20024;-61
2022/08/25 01:39:08;;;;;;;14.23;3.30;;;24.10;99.90;;;;;;5094772;28;20099;-61
2022/08/25 01:41:49;;;;;;;13.48;3.45;;;24.20;99.90;;;;;;5094893;28;20096;-61
2022/08/25 01:44:16;;;;;;;15.00;3.60;;;24.20;99.90;;;;;;5094592;28;20106;-62
2022/08/25 01:46:42;;;;;;;22.90;4.25;;;24.10;99.90;;;;;;5095152;28;20445;-61
2022/08/25 01:49:08;;;;;;;14.88;3.78;;;24.10;99.90;;;;;;5094373;28;20033;-61
2022/08/25 01:51:42;;;;;;;13.98;3.60;;;24.10;99.90;;;;;;5094577;28;20025;-61
2022/08/25 01:54:07;;;;;;;;;;;23.90;99.90;;;;;;5095422;28;20043;-61
2022/08/25 01:56:33;;;;;;;16.88;3.92;;;23.90;99.90;;;;;;5094573;28;20276;-61
2022/08/25 01:58:59;;;;;;;15.82;4.30;;;23.90;99.90;;;;;;5093469;28;20028;-61
2022/08/25 02:01:25;;;;;;;13.13;3.58;;;23.90;99.90;;;;;;5094557;28;20420;-61
2022/08/25 02:03:54;;;;;;;17.13;3.67;;;23.90;99.90;;;;;;5094000;28;20024;-61
2022/08/25 02:06:27;;;;;;;15.32;4.30;;;23.90;99.90;;;;;;5094349;28;20028;-61
2022/08/25 02:08:56;;;;;;;13.25;4.15;;;23.70;99.90;;;;;;5094275;28;20107;-61
2022/08/25 02:11:22;;;;;;;13.15;3.95;;;23.70;99.90;;;;;;5094075;28;20454;-61
2022/08/25 02:13:51;;;;;;;20.00;4.10;;;23.70;99.90;;;;;;5094210;28;20051;-62
2022/08/25 02:16:24;;;;;;;20.05;4.70;;;23.60;99.90;;;;;;5093762;28;20495;-60
2022/08/25 02:18:51;;;;;;;17.27;4.55;;;23.50;99.90;;;;;;5094155;28;20028;-61
2022/08/25 02:21:17;;;;;;;15.55;4.00;;;23.50;99.90;;;;;;5094427;28;20029;-61
2022/08/25 02:23:43;;;;;;;19.60;4.38;;;23.50;99.90;;;;;;5093875;28;20042;-61
2022/08/25 02:26:09;;;;;;;22.15;4.20;;;23.40;99.90;;;;;;5093834;28;20024;-61
2022/08/25 02:28:36;;;;;;;18.90;4.07;;;23.40;99.90;;;;;;5093928;28;20054;-62
2022/08/25 02:31:05;;;;;;;21.10;5.20;;;23.30;99.90;;;;;;5093464;28;20020;-61
2022/08/25 02:33:31;;;;;;;24.88;5.22;;;23.30;99.90;;;;;;5093966;28;20044;-61
2022/08/25 02:36:01;;;;;;;24.77;5.38;;;23.20;99.90;;;;;;5093965;28;20027;-62
2022/08/25 02:38:28;;;;;;;27.50;6.43;;;23.30;99.90;;;;;;5093572;28;20458;-61
2022/08/25 02:40:57;;;;;;;23.33;5.10;;;23.10;99.90;;;;;;5093727;28;20073;-61
2022/08/25 02:43:24;;;;;;;25.48;6.22;;;23.00;99.90;;;;;;5093806;28;20111;-61
2022/08/25 02:45:50;;;;;;;22.42;5.00;;;23.10;99.90;;;;;;5092962;28;20453;-61
2022/08/25 02:48:16;;;;;;;22.92;5.68;;;23.10;99.90;;;;;;5093456;28;20024;-61
2022/08/25 02:50:51;;;;;;;27.30;5.82;;;23.10;99.90;;;;;;5094037;28;20032;-61
2022/08/25 02:53:18;;;;;;;28.67;5.88;;;23.10;99.90;;;;;;5093584;28;20028;-61
2022/08/25 02:55:44;;;;;;;22.88;5.38;;;23.00;99.90;;;;;;5093351;28;20020;-61
2022/08/25 02:58:10;;;;;;;23.73;5.95;;;23.10;99.90;;;;;;5093713;28;20039;-61
2022/08/25 03:00:36;;;;;;;26.90;5.55;;;23.10;99.90;;;;;;5092893;28;20028;-61
2022/08/25 03:03:04;;;;;;;26.13;6.05;;;23.00;99.90;;;;;;5093392;28;20032;-61
2022/08/25 03:05:30;;;;;;;20.02;5.35;;;22.80;99.90;;;;;;5093194;28;20035;-61
2022/08/25 03:07:55;;;;;;;28.73;5.88;;;22.80;99.90;;;;;;5093155;28;20024;-61
2022/08/25 03:10:21;;;;;;;20.58;5.45;;;22.80;99.90;;;;;;5093449;28;20387;-61
2022/08/25 03:12:47;;;;;;;24.65;5.78;;;22.90;99.90;;;;;;5093152;28;20039;-61
2022/08/25 03:15:15;;;;;;;19.50;5.55;;;22.80;99.90;;;;;;5092529;28;20028;-60
2022/08/25 03:17:45;;;;;;;26.35;5.78;;;22.70;99.90;;;;;;5093267;28;20499;-61
2022/08/25 03:20:11;;;;;;;20.35;5.10;;;22.80;99.90;;;;;;5093381;28;20023;-61
2022/08/25 03:22:37;;;;;;;21.52;5.00;;;22.80;99.90;;;;;;5108695;28;20023;-61
2022/08/25 03:27:48;;;;;;;19.98;5.38;;;22.80;99.90;;;;;;5093243;28;20035;-61
2022/08/25 03:30:14;;;;;;;22.35;5.35;;;22.70;99.90;;;;;;5092420;28;20024;-62
2022/08/25 03:32:41;;;;;;;22.42;5.03;;;22.60;99.90;;;;;;5093214;28;20396;-61
2022/08/25 03:35:08;;;;;;;20.35;4.82;;;22.60;99.90;;;;;;5092719;28;20028;-61
2022/08/25 03:37:35;;;;;;;21.15;5.50;;;22.60;99.90;;;;;;5092727;28;20476;-61
2022/08/25 03:40:06;;;;;;;25.08;5.30;;;22.50;99.90;;;;;;5092845;28;20020;-61
2022/08/25 03:42:32;;;;;;;20.77;4.80;;;22.40;99.90;;;;;;5092812;28;20064;-61
2022/08/25 03:44:58;;;;;;;23.85;4.70;;;22.40;99.90;;;;;;5091957;28;20495;-61
2022/08/25 03:47:25;;;;;;;18.58;4.88;;;22.40;99.90;;;;;;5092704;28;20059;-61
2022/08/25 03:49:51;;;;;;;24.30;5.63;;;22.40;99.90;;;;;;5092904;28;20446;-61
2022/08/25 03:52:17;;;;;;;21.48;4.57;;;22.30;99.90;;;;;;5092285;28;20043;-61
2022/08/25 03:54:43;;;;;;;20.13;4.53;;;22.30;99.90;;;;;;5092505;28;20102;-61
2022/08/25 03:57:10;;;;;;;23.83;4.68;;;22.20;99.90;;;;;;5092598;28;20035;-61
2022/08/25 03:59:38;;;;;;;20.75;5.03;;;22.20;99.90;;;;;;5091959;28;20019;-61
2022/08/25 04:02:05;;;;;;;16.60;4.13;;;22.20;99.90;;;;;;5092322;28;20481;-61
2022/08/25 04:04:32;;;;;;;20.40;4.47;;;22.30;99.90;;;;;;5092208;28;20527;-61
2022/08/25 04:06:58;;;;;;;18.25;4.90;;;22.30;99.90;;;;;;5092192;28;20016;-61
2022/08/25 04:09:24;;;;;;;23.17;5.45;;;22.30;99.90;;;;;;5092261;28;20545;-61
2022/08/25 04:11:50;;;;;;;20.85;5.45;;;22.20;99.90;;;;;;5092309;28;20063;-61
2022/08/25 04:14:16;;;;;;;18.65;4.65;;;22.10;99.90;;;;;;5091746;28;20095;-61
2022/08/25 04:16:43;;;;;;;17.73;4.15;;;22.10;99.90;;;;;;5092182;28;20028;-61
2022/08/25 04:19:09;;;;;;;21.13;5.07;;;22.10;99.90;;;;;;5092089;28;20028;-61
2022/08/25 04:21:36;;;;;;;16.45;3.97;;;22.10;99.90;;;;;;5093281;28;20503;-61
2022/08/25 04:24:02;;;;;;;16.67;4.07;;;22.10;99.90;;;;;;5096372;28;20023;-61
2022/08/25 04:26:43;;;;;;;19.48;4.60;;;22.10;99.90;;;;;;5111927;28;20028;-61
2022/08/25 04:29:11;;;;;;;22.42;4.75;;;22.10;99.90;;;;;;5095924;28;20108;-61
2022/08/25 04:31:42;;;;;;;18.88;4.35;;;22.10;99.90;;;;;;5096298;28;20024;-61
2022/08/25 04:34:09;;;;;;;18.85;4.30;;;22.00;99.90;;;;;;5096884;28;20492;-61
2022/08/25 04:36:35;;;;;;;22.85;5.30;;;22.00;99.90;;;;;;5096875;28;20127;-61
2022/08/25 04:39:01;;;;;;;16.60;4.57;;;22.00;99.90;;;;;;5096517;28;20063;-61
2022/08/25 04:41:27;;;;;;;21.52;5.03;;;22.00;99.90;;;;;;5096055;28;20564;-62
2022/08/25 04:43:58;;;;;;;21.27;4.93;;;21.90;99.90;;;;;;5096137;28;20031;-61
2022/08/25 04:46:27;;;;;;;21.60;4.93;;;21.80;99.90;;;;;;5095992;28;20103;-61
2022/08/25 04:48:55;;;;;;;18.23;4.53;;;21.80;99.90;;;;;;5096103;28;20032;-62
2022/08/25 04:51:28;;;;;;;18.73;4.53;;;21.80;99.90;;;;;;5096512;28;20054;-61
2022/08/25 04:53:54;;;;;;;17.83;4.18;;;21.80;99.90;;;;;;5096306;28;20507;-61
2022/08/25 04:56:25;;;;;;;23.45;5.22;;;21.70;99.90;;;;;;5095708;28;20020;-61
2022/08/25 04:58:52;;;;;;;21.38;4.65;;;21.70;99.90;;;;;;5096329;28;20021;-61
2022/08/25 05:01:21;;;;;;;18.98;4.85;;;21.70;99.90;;;;;;5096412;28;20503;-61
2022/08/25 05:03:52;;;;;;;14.48;4.38;;;21.60;99.90;;;;;;5095631;28;20036;-61
2022/08/25 05:06:18;;;;;;;18.15;4.47;;;21.60;99.90;;;;;;5095926;28;20085;-61
2022/08/25 05:08:44;;;;;;;22.33;5.28;;;21.60;99.90;;;;;;5095995;28;20473;-61
2022/08/25 05:11:13;;;;;;;22.17;4.60;;;21.50;99.90;;;;;;5095472;28;20028;-61
2022/08/25 05:13:40;;;;;;;16.17;4.30;;;21.50;99.90;;;;;;5095500;28;20029;-61
2022/08/25 05:16:06;;;;;;;21.58;5.00;;;21.40;99.90;;;;;;5095453;28;20024;-61
2022/08/25 05:18:33;;;;;;;15.32;4.22;;;21.40;99.90;;;;;;5111254;28;20395;-61
2022/08/25 05:21:05;;;;;;;17.20;4.40;;;21.40;99.90;;;;;;5095650;28;20078;-61
2022/08/25 05:23:31;;;;;;;17.13;4.65;;;21.40;99.90;;;;;;5095259;28;20487;-61
2022/08/25 05:26:05;;;;;;;19.42;4.57;;;21.40;99.90;;;;;;5094747;28;20035;-61
2022/08/25 05:28:31;;;;;;;22.33;5.20;;;21.30;99.90;;;;;;5095499;28;20031;-61
2022/08/25 05:30:59;;;;;;;17.48;4.68;;;21.30;99.90;;;;;;5095032;28;20450;-61
2022/08/25 05:33:26;;;;;;;18.15;4.38;;;21.30;99.90;;;;;;5093716;28;20077;-61
2022/08/25 05:35:51;;;;;;;22.08;4.70;;;21.30;99.90;;;;;;5095432;28;20024;-61
2022/08/25 05:38:17;;;;;;;24.92;5.03;;;21.20;99.90;;;;;;5094762;28;20027;-61
2022/08/25 05:40:43;;;;;;;22.30;5.05;;;21.10;99.90;;;;;;5094623;28;20019;-61
2022/08/25 05:43:09;;;;;;;21.48;4.97;;;21.10;99.90;;;;;;5095135;28;20050;-61
2022/08/25 05:45:35;;;;;;;15.40;4.45;;;21.10;99.90;;;;;;5094372;28;20048;-62
2022/08/25 05:48:01;;;;;;;19.80;4.55;;;21.20;99.90;;;;;;5094884;28;20054;-61
2022/08/25 05:50:27;;;;;;;18.77;4.78;;;21.20;99.90;;;;;;5094758;28;20028;-61
2022/08/25 05:52:53;;;;;;;15.32;4.25;;;21.30;99.90;;;;;;5095307;28;20040;-61
2022/08/25 05:55:19;;;;;;;18.58;4.95;;;21.30;99.90;;;;;;5094295;28;20020;-61
2022/08/25 05:57:45;;;;;;;17.75;4.65;;;21.30;99.90;;;;;;5094509;28;20087;-61
2022/08/25 06:00:12;;;;;;;18.73;4.65;;;21.30;99.90;;;;;;5094989;28;20054;-61
2022/08/25 06:02:47;;;;;;;16.83;4.13;;;21.30;99.90;;;;;;5110105;28;20034;-61
2022/08/25 06:05:19;;;;;;;20.77;4.68;;;21.30;99.90;;;;;;5094454;28;20028;-61
2022/08/25 06:07:46;;;;;;;24.30;5.43;;;21.40;99.90;;;;;;5094246;28;20051;-62
2022/08/25 06:10:13;;;;;;;19.85;5.10;;;21.40;99.90;;;;;;5094039;28;20048;-61
2022/08/25 06:12:43;;;;;;;20.95;5.03;;;21.40;99.90;;;;;;5094520;28;20036;-61
2022/08/25 06:15:22;;;;;;;17.73;4.53;;;21.50;99.90;;;;;;5094492;28;20031;-62
2022/08/25 06:17:49;;;;;;;21.80;5.20;;;21.80;99.90;;;;;;5094396;28;20028;-61
2022/08/25 06:20:18;;;;;;;14.07;3.65;;;22.20;99.90;;;;;;5094115;28;20360;-61
2022/08/25 06:22:44;;;;;;;17.95;4.30;;;22.40;99.90;;;;;;5094502;28;20393;-61
2022/08/25 06:25:12;;;;;;;17.17;4.93;;;22.70;99.90;;;;;;5092490;28;20024;-61
2022/08/25 06:27:38;;;;;;;16.40;4.07;;;23.10;99.90;;;;;;5094033;28;20024;-61
2022/08/25 06:30:09;;;;;;;18.83;4.65;;;23.40;99.90;;;;;;5094442;28;20477;-61
2022/08/25 06:32:38;;;;;;;19.00;4.88;;;23.80;99.90;;;;;;5093882;28;20040;-61
2022/08/25 06:35:10;;;;;;;13.73;4.15;;;24.30;99.90;;;;;;5093861;28;20036;-61
2022/08/25 06:37:36;;;;;;;15.35;3.97;;;24.80;99.90;;;;;;5093607;28;20028;-61
2022/08/25 06:40:03;;;;;;;13.60;3.70;;;25.40;99.90;;;;;;5093695;28;20031;-61
2022/08/25 06:42:29;;;;;;;11.25;3.20;;;26.20;99.90;;;;;;5093684;28;20527;-61
2022/08/25 06:44:54;;;;;;;10.85;3.40;;;26.80;99.90;;;;;;5092881;28;20048;-62
2022/08/25 06:47:20;;;;;;;11.88;3.70;;;27.10;99.90;;;;;;5093697;28;20032;-62
2022/08/25 06:49:46;;;;;;;12.07;3.35;;;27.20;99.90;;;;;;5093480;28;20047;-62
2022/08/25 06:52:13;;;;;;;11.57;3.53;;;27.50;99.90;;;;;;5093419;28;20078;-61
2022/08/25 06:54:39;;;;;;;11.68;3.47;;;27.70;99.90;;;;;;5093621;28;20032;-61
2022/08/25 06:57:06;;;;;;;10.32;3.67;;;28.00;99.90;;;;;;5093418;28;20073;-61
2022/08/25 06:59:33;;;;;;;15.07;4.00;;;28.40;99.90;;;;;;5093403;28;20032;-62
2022/08/25 07:01:59;;;;;;;10.50;3.35;;;28.80;99.90;;;;;;5093479;28;20089;-62
2022/08/25 07:04:25;;;;;;;8.93;3.47;;;29.00;99.90;;;;;;5093542;28;20055;-62
2022/08/25 07:06:51;;;;;;;9.13;3.25;;;29.30;99.90;;;;;;5092888;28;20044;-61
2022/08/25 07:09:17;;;;;;;10.23;3.40;;;29.70;99.90;;;;;;5093209;28;20058;-61
2022/08/25 07:11:44;;;;;;;8.63;2.92;;;30.10;99.90;;;;;;5093218;28;20024;-61
2022/08/25 07:14:12;;;;;;;8.70;3.30;;;30.80;99.90;;;;;;5093408;28;20131;-61
2022/08/25 07:16:38;;;;;;;9.38;3.22;;;31.50;99.90;;;;;;5093157;28;20103;-62
2022/08/25 07:19:04;;;;;;;9.60;2.72;;;32.20;99.90;;;;;;5092923;28;20028;-61
2022/08/25 07:21:32;;;;;;;6.43;2.90;;;32.60;99.90;;;;;;5092317;28;20066;-61
2022/08/25 07:23:59;;;;;;;9.07;2.83;;;33.30;99.90;;;;;;5092777;28;20035;-62
2022/08/25 07:26:28;;;;;;;7.65;2.90;;;34.00;99.50;;;;;;5092650;28;20032;-62
2022/08/25 07:28:55;;;;;;;6.50;2.50;;;34.40;98.00;;;;;;5093178;28;20494;-61
2022/08/25 07:31:21;;;;;;;8.82;3.20;;;35.10;96.80;;;;;;5092798;28;20062;-61
2022/08/25 07:36:31;;;;;;;6.95;2.45;;;36.40;95.40;;;;;;5092497;28;20038;-61
2022/08/25 07:38:58;;;;;;;6.18;2.70;;;36.80;94.00;;;;;;5092343;28;20042;-62
2022/08/25 07:41:25;;;;;;;4.80;2.30;;;37.00;94.00;;;;;;5093347;28;20020;-61
2022/08/25 07:43:51;;;;;;;6.15;2.60;;;37.10;93.00;;;;;;5092521;28;20043;-62
2022/08/25 07:46:17;;;;;;;6.82;2.30;;;37.50;92.50;;;;;;5092496;28;20024;-62
2022/08/25 07:48:43;;;;;;;4.85;2.10;;;37.50;91.90;;;;;;5092574;28;20016;-62
2022/08/25 07:51:12;;;;;;;7.95;2.50;;;36.00;92.50;;;;;;5092303;28;20403;-62
2022/08/25 07:53:39;;;;;;;7.55;2.75;;;35.30;94.80;;;;;;5092361;28;20127;-62
2022/08/25 07:56:16;;;;;;;6.45;2.33;;;34.30;95.00;;;;;;5091884;28;20485;-62
2022/08/25 07:58:42;;;;;;;8.57;2.55;;;33.30;96.10;;;;;;5092342;28;20043;-61
2022/08/25 08:01:16;;;;;;;6.05;2.22;;;33.00;96.30;;;;;;5092300;28;20369;-62
2022/08/25 08:03:42;;;;;;;7.72;2.83;;;32.40;96.90;;;;;;5092438;28;20016;-62
2022/08/25 08:06:11;;;;;;;8.52;2.75;;;31.90;98.00;;;;;;5091692;28;20400;-62
2022/08/25 08:08:44;;;;;;;5.30;2.30;;;31.60;99.30;;;;;;5092106;28;20095;-61
2022/08/25 08:11:28;;;;;;;5.13;2.17;;;31.30;99.40;;;;;;5092094;28;20384;-62
2022/08/25 08:13:55;;;;;;;6.03;2.30;;;31.10;99.50;;;;;;5091951;28;20449;-62
2022/08/25 08:16:23;;;;;;;5.43;2.30;;;32.00;97.70;;;;;;5092357;28;20050;-61
2022/08/25 08:18:49;;;;;;;6.65;2.55;;;32.10;97.50;;;;;;5091598;28;20373;-62
2022/08/25 08:21:22;;;;;;;4.95;2.30;;;31.70;97.90;;;;;;5090807;28;20066;-61
2022/08/25 08:23:49;;;;;;;6.90;2.13;;;31.40;98.10;;;;;;5092300;28;20450;-62
2022/08/25 08:26:16;;;;;;;6.90;2.20;;;30.90;98.10;;;;;;5091794;28;20107;-61
2022/08/25 08:28:41;;;;;;;6.40;2.22;;;30.70;99.00;;;;;;5092004;28;20028;-61
2022/08/25 08:31:07;;;;;;;7.47;2.00;;;30.50;98.90;;;;;;5091780;28;20495;-62
2022/08/25 08:33:34;;;;;;;6.97;2.35;;;30.30;99.50;;;;;;5091294;28;20048;-61
2022/08/25 08:36:06;;;;;;;5.57;2.25;;;29.90;99.60;;;;;;5091893;28;20091;-61
2022/08/25 08:38:34;;;;;;;5.65;2.20;;;30.00;99.90;;;;;;5092030;28;20495;-62
2022/08/25 08:43:47;;;;;;;4.85;2.28;;;29.60;99.60;;;;;;5091777;28;20158;-61
2022/08/25 08:46:13;;;;;;;6.80;2.30;;;29.50;99.90;;;;;;5091697;28;20055;-61
2022/08/25 08:49:10;;;;;;;6.53;2.17;;;29.40;99.90;;;;;;5091338;28;20514;-61
2022/08/25 08:51:47;;;;;;;5.90;2.20;;;29.30;99.90;;;;;;5091954;28;20024;-62
2022/08/25 08:54:17;;;;;;;5.95;2.10;;;29.30;99.90;;;;;;5091679;28;20036;-62
2022/08/25 08:56:47;;;;;;;4.57;2.00;;;28.90;99.90;;;;;;5091703;28;20028;-61
2022/08/25 08:59:20;;;;;;;6.20;2.38;;;29.00;99.90;;;;;;5091619;28;20027;-61
2022/08/25 09:01:55;;;;;;;7.07;2.45;;;29.80;99.90;;;;;;5090566;28;20050;-61
2022/08/25 09:04:39;;;;;;;7.60;2.50;;;30.10;99.90;;;;;;5091256;28;20032;-61
2022/08/25 09:07:12;;;;;;;7.88;2.30;;;30.10;99.90;;;;;;5091567;28;20082;-61
2022/08/25 09:09:40;;;;;;;9.37;2.30;;;29.80;99.90;;;;;;5095579;28;20027;-61
2022/08/25 09:12:30;;;;;;;13.25;2.65;;;29.70;99.90;;;;;;5095269;28;20461;-61
2022/08/25 09:15:11;;;;;;;6.40;2.20;;;29.70;99.90;;;;;;5095002;28;20031;-62
2022/08/25 09:18:03;;;;;;;10.15;2.63;;;29.40;99.90;;;;;;5094642;28;20484;-61
2022/08/25 09:20:47;;;;;;;11.27;2.50;;;29.30;99.90;;;;;;5095685;28;20445;-61
2022/08/25 09:23:21;;;;;;;8.35;2.40;;;30.70;99.90;;;;;;5095035;28;20388;-62
2022/08/25 09:26:13;;;;;;;8.30;2.42;;;31.50;99.90;;;;;;5094941;28;20502;-62
2022/08/25 09:29:05;;;;;;;6.40;2.25;;;31.70;99.30;;;;;;5095058;28;20085;-62
2022/08/25 09:31:32;;;;;;;5.45;2.22;;;31.70;99.90;;;;;;5091387;28;20043;-61
2022/08/25 09:34:02;;;;;;;5.97;2.00;;;32.10;99.20;;;;;;5094942;28;20373;-62
2022/08/25 09:36:29;;;;;;;5.97;2.03;;;32.20;98.50;;;;;;5095259;28;20034;-62
2022/08/25 09:38:55;;;;;;;4.68;1.75;;;32.00;98.60;;;;;;5094638;28;20506;-61
2022/08/25 09:41:39;;;;;;;6.22;1.88;;;32.00;99.00;;;;;;5094781;28;20107;-61
2022/08/25 09:44:14;;;;;;;5.22;1.77;;;32.40;97.90;;;;;;5094556;28;20516;-61
2022/08/25 09:46:52;;;;;;;7.88;2.30;;;32.20;98.00;;;;;;5094628;28;20036;-62
2022/08/25 09:49:18;;;;;;;5.97;2.00;;;31.50;98.90;;;;;;5095171;28;20067;-62
2022/08/25 09:51:43;;;;;;;4.10;1.80;;;31.70;98.70;;;;;;5094505;28;20464;-61
2022/08/25 09:54:12;;;;;;;4.72;1.70;;;31.90;98.80;;;;;;5094599;28;20036;-62
2022/08/25 09:56:52;;;;;;;7.68;2.13;;;32.60;98.50;;;;;;5094491;28;20024;-62
2022/08/25 09:59:28;;;;;;;4.85;1.80;;;33.00;97.70;;;;;;5094650;28;20016;-61
2022/08/25 10:01:57;;;;;;;6.35;1.85;;;33.40;97.40;;;;;;5094065;28;20063;-62
2022/08/25 10:04:27;;;;;;;5.40;1.77;;;33.30;97.00;;;;;;5094513;28;20048;-62
2022/08/25 10:06:54;;;;;;;4.97;1.58;;;33.60;96.70;;;;;;5094715;28;20084;-61
2022/08/25 10:09:36;;;;;;;5.13;1.65;;;33.90;95.80;;;;;;5094439;28;20013;-62
2022/08/25 10:12:13;;;;;;;3.78;1.70;;;33.70;96.10;;;;;;5094246;28;20028;-62
2022/08/25 10:14:39;;;;;;;5.03;1.70;;;33.40;96.40;;;;;;5094412;28;20028;-62
2022/08/25 10:17:25;;;;;;;5.82;1.92;;;34.20;96.10;;;;;;5093982;28;20031;-62
2022/08/25 10:20:19;;;;;;;5.63;1.80;;;34.80;95.60;;;;;;5093441;28;20472;-62
2022/08/25 10:22:45;;;;;;;;;;;35.30;94.70;;;;;;5092300;28;20068;-62
2022/08/25 10:25:13;;;;;;;5.63;1.98;;;35.50;94.20;;;;;;5094387;28;20410;-62
2022/08/25 10:27:57;;;;;;;4.85;1.45;;;35.30;94.00;;;;;;5093946;28;20031;-62
2022/08/25 10:30:30;;;;;;;5.93;1.80;;;34.70;94.20;;;;;;5093502;28;20036;-62
2022/08/25 10:33:29;;;;;;;6.38;2.08;;;34.50;94.40;;;;;;5094013;28;20043;-63
2022/08/25 10:36:10;;;;;;;6.65;1.98;;;34.50;94.80;;;;;;5093768;28;20024;-62
2022/08/25 10:38:52;;;;;;;6.45;1.70;;;34.00;95.00;;;;;;5093540;28;20438;-61
2022/08/25 10:41:39;;;;;;;7.60;1.80;;;33.90;94.90;;;;;;5093780;28;20377;-62
2022/08/25 10:47:40;;;;;;;5.05;1.70;;;32.80;96.20;;;;;;5070963;28;20104;-62
2022/08/25 10:50:23;;;;;;;4.32;1.73;;;32.60;96.50;;;;;;5071492;28;20040;-62
2022/08/25 10:53:35;;;;;;;5.60;2.10;;;32.30;96.60;;;;;;5071168;28;20052;-61
2022/08/25 10:56:07;;;;;;;5.72;1.90;;;31.90;96.70;;;;;;5031570;28;20166;-62
2022/08/25 10:59:03;;;;;;;8.45;2.03;;;31.70;96.60;;;;;;5014017;28;20042;-62
2022/08/25 11:01:54;;;;;;;6.93;2.00;;;31.70;96.80;;;;;;5030871;28;20466;-62
2022/08/25 11:04:36;;;;;;;11.10;2.42;;;31.40;97.10;;;;;;5030811;28;20539;-62
2022/08/25 11:07:04;;;;;;;4.93;1.55;;;31.00;98.00;;;;;;5030889;28;20133;-62
2022/08/25 11:09:38;;;;;;;6.20;2.13;;;30.80;98.30;;;;;;5030606;28;20707;-61
2022/08/25 11:12:12;;;;;;;8.35;2.25;;;30.80;98.20;;;;;;5030793;28;20402;-62
2022/08/25 11:15:21;;;;;;;6.03;1.70;;;30.70;98.20;;;;;;5030455;28;20033;-62
2022/08/25 11:17:59;;;;;;;8.20;2.15;;;30.60;98.60;;;;;;5030647;28;20128;-62
2022/08/25 11:20:40;;;;;;;10.25;2.20;;;30.60;98.50;;;;;;5030963;28;20454;-62
2022/08/25 11:23:10;;;;;;;7.60;1.88;;;30.30;98.80;;;;;;5030763;28;20055;-62
2022/08/25 11:25:50;;;;;;;7.78;2.13;;;30.30;99.40;;;;;;5050219;28;20552;-61
2022/08/25 11:28:41;;;;;;;9.68;2.05;;;30.30;99.30;;;;;;5049604;28;20025;-61
2022/08/25 11:31:08;;;;;;;8.18;2.00;;;30.70;99.00;;;;;;5091081;28;20043;-62
2022/08/25 11:33:34;;;;;;;7.60;2.00;;;30.70;98.90;;;;;;5092915;28;20032;-62
2022/08/25 11:36:23;;;;;;;8.00;2.00;;;30.50;98.70;;;;;;5092753;28;20028;-62
2022/08/25 11:38:52;;;;;;;7.28;2.00;;;30.50;98.60;;;;;;5092109;28;20090;-62
2022/08/25 11:41:51;;;;;;;6.55;1.70;;;30.40;98.60;;;;;;5093004;28;20030;-62
2022/08/25 11:44:44;;;;;;;7.05;1.80;;;30.20;98.80;;;;;;5092398;28;20052;-62
2022/08/25 11:47:28;;;;;;;6.90;1.97;;;30.10;98.90;;;;;;5092841;28;20107;-61
2022/08/25 11:50:00;;;;;;;8.20;2.08;;;29.90;99.20;;;;;;5092619;28;20032;-62
2022/08/25 11:52:32;;;;;;;7.40;2.13;;;29.90;99.30;;;;;;5092378;28;20039;-62
2022/08/25 11:55:15;;;;;;;5.03;1.90;;;29.90;99.40;;;;;;5092670;28;20035;-62
2022/08/25 11:57:43;;;;;;;8.07;2.10;;;29.70;99.60;;;;;;5092457;28;20056;-62
2022/08/25 12:00:33;;;;;;;8.60;2.00;;;29.70;99.80;;;;;;5092434;28;20053;-62
2022/08/25 12:03:21;;;;;;;8.80;2.33;;;29.70;99.80;;;;;;5091931;28;20040;-62
2022/08/25 12:06:11;;;;;;;9.95;2.42;;;29.50;99.90;;;;;;5088159;28;20109;-62
2022/08/25 12:08:59;;;;;;;6.95;2.03;;;29.40;99.90;;;;;;5092115;28;20021;-62
2022/08/25 12:11:55;;;;;;;7.18;2.03;;;29.50;99.90;;;;;;5091780;28;20060;-62
2022/08/25 12:14:20;;;;;;;12.95;2.97;;;29.50;99.90;;;;;;5091766;28;20071;-62
2022/08/25 12:16:55;;;;;;;5.55;2.10;;;29.50;99.90;;;;;;5092207;28;20101;-61
2022/08/25 12:19:36;;;;;;;8.30;2.22;;;29.30;99.90;;;;;;5092185;28;20416;-62
2022/08/25 12:22:01;;;;;;;7.20;2.00;;;29.50;99.90;;;;;;5092555;28;20150;-62
2022/08/25 12:24:42;;;;;;;7.35;1.92;;;29.70;99.90;;;;;;5091665;28;20111;-62
2022/08/25 12:27:23;;;;;;;6.00;2.03;;;29.80;99.70;;;;;;5091838;28;20082;-62
2022/08/25 12:29:54;;;;;;;8.50;2.05;;;29.90;99.50;;;;;;5091905;28;20124;-61
2022/08/25 12:32:37;;;;;;;6.18;2.25;;;29.80;99.60;;;;;;5092166;28;20032;-61
2022/08/25 12:35:18;;;;;;;9.88;2.38;;;29.90;99.80;;;;;;5091818;28;20040;-61
2022/08/25 12:38:24;;;;;;;7.45;1.95;;;30.10;99.60;;;;;;5091918;28;20028;-61
2022/08/25 12:40:50;;;;;;;10.75;2.20;;;30.10;99.60;;;;;;5068842;28;20107;-61
2022/08/25 12:43:19;;;;;;;7.63;1.90;;;30.00;99.50;;;;;;5071577;28;20540;-62
2022/08/25 12:45:47;;;;;;;7.25;2.20;;;30.00;99.90;;;;;;5073283;28;20148;-61
2022/08/25 12:48:27;;;;;;;7.55;2.10;;;30.20;99.80;;;;;;5073389;28;20128;-61
2022/08/25 12:51:14;;;;;;;7.85;2.00;;;30.40;99.90;;;;;;5073428;28;20033;-62
2022/08/25 12:53:42;;;;;;;8.05;2.30;;;30.40;99.60;;;;;;5073517;28;20140;-61
2022/08/25 12:56:33;;;;;;;8.23;2.22;;;30.10;99.90;;;;;;5072905;28;20025;-61
2022/08/25 12:59:01;;;;;;;7.72;2.17;;;30.20;99.40;;;;;;5073107;28;20016;-61
2022/08/25 13:01:42;;;;;;;6.07;2.00;;;30.30;99.90;;;;;;5056251;28;20033;-61
2022/08/25 13:04:17;;;;;;;7.97;1.95;;;30.40;99.50;;;;;;5072780;28;20025;-62
2022/08/25 13:07:20;;;;;;;8.50;2.10;;;30.50;99.70;;;;;;5073059;28;20078;-61
2022/08/25 13:10:17;;;;;;;6.57;2.07;;;30.30;99.30;;;;;;5072491;28;20039;-61
2022/08/25 13:12:54;;;;;;;5.57;2.20;;;30.10;99.40;;;;;;5072969;28;20032;-61
2022/08/25 13:15:34;;;;;;;7.57;2.00;;;30.20;99.50;;;;;;5072909;28;20393;-61
2022/08/25 13:18:18;;;;;;;7.60;1.90;;;30.10;99.40;;;;;;5075170;28;20024;-62
2022/08/25 13:20:46;;;;;;;8.65;2.10;;;30.10;99.20;;;;;;5074998;28;20052;-61